Aeroporto :
LOGIN :

Iscrizione | Disclaimer

   EN    FR    IT 

 










Sommario :    VFR   VFR Marginale   IFR   IFR Intensivo   IFR Molto Intensivo
Visibilità : 
Base nubi : 
>= 8 km
>= 3000ft
5 / 8 km
1000 / 3000 ft
1500m / 5 km
500 / 1000 ft
800 / 1500m
200 / 500 ft
< 800m
< 200 ft
Simboli :   Temporali  Nebbia  Neve Forte  Precipitazioni Forti  Vento > 20 kt
SIGMETs :   Varie  Temporali  Ghiacco  Turbolenza  Onda orograficha  Ceneri Vulcaniche







- Altitudine del aeroporto : 1411 ft
- Codice IATA : SZG


LOWS - Salzburg

ULTIMO METAR :
  • 191650Z 16002KT 9999 FEW020 SCT220 M01/M03 Q1009 NOSIG

METARs OBSOLETI :
  • 191620Z VRB02KT 9999 FEW016 SCT220 M01/M03 Q1009 NOSIG
  • 191550Z VRB02KT 9999 FEW016 SCT220 M00/M02 Q1009 TEMPO 03007KT
  • 191520Z VRB02KT 9999 FEW016 SCT220 00/M02 Q1009 TEMPO 03007KT
  • 191450Z 22003KT 9999 FEW030 SCT110 01/M02 Q1009 NOSIG
  • 191420Z VRB02KT 9999 FEW025 SCT110 BKN220 02/M02 Q1009 NOSIG

TAF TAF LOWS
Valido dal 19 a 12 ore il 20 a 12 ore UTC


191115Z 1912/2012 04007KT 9999 FEW015 BKN025 TX04/2012Z TNM01/2001Z
BECMG 1912/1914 SCT040
BECMG 1916/1918 15003KT
TEMPO 1922/2007 SCT080 BKN120
BECMG 2007/2009 35006KT CAVOK
Nessun NOTAM noto per questo aeroporto.



MetMap, La meteo Aeronautica in un colpo d'occhio ! - Copyright ORBIFLY Dicembre 2007 - Disclaimer

ORBIFLY MET'MAP TEAM :

Programmazione e sviluppo : Alexandra Zaïnal
Concezione e sviluppo : Baudouin d'Aumeries
Co-Programmazione e sviluppo : Marc-Olivier Méhu
Supporto tecnico e logistico : Manuel Goepfert
Aiuto per la traduzione : Arnaldo La Scala

Contatto : metmap@orbifly.com




FONTI E CREDITI :

   NOAA